sensor_id;sensor_type;location;lat;lon;timestamp;temperature;humidity
13796;SHT30;40911;51.552;9.874;2023-09-08T00:00:31;17.07;84.65
13796;SHT30;40911;51.552;9.874;2023-09-08T00:05:16;16.95;85.47
13796;SHT30;40911;51.552;9.874;2023-09-08T00:07:39;17.11;84.36
13796;SHT30;40911;51.552;9.874;2023-09-08T00:10:00;17.14;84.94
13796;SHT30;40911;51.552;9.874;2023-09-08T00:12:22;16.84;85.43
13796;SHT30;40911;51.552;9.874;2023-09-08T00:14:43;16.93;85.05
13796;SHT30;40911;51.552;9.874;2023-09-08T00:17:05;16.98;84.72
13796;SHT30;40911;51.552;9.874;2023-09-08T00:19:27;16.85;85.43
13796;SHT30;40911;51.552;9.874;2023-09-08T00:21:48;16.97;85.03
13796;SHT30;40911;51.552;9.874;2023-09-08T00:24:11;16.95;85.05
13796;SHT30;40911;51.552;9.874;2023-09-08T00:26:33;16.87;85.30
13796;SHT30;40911;51.552;9.874;2023-09-08T00:28:56;16.97;84.91
13796;SHT30;40911;51.552;9.874;2023-09-08T00:31:18;16.95;84.66
13796;SHT30;40911;51.552;9.874;2023-09-08T00:33:39;16.85;84.79
13796;SHT30;40911;51.552;9.874;2023-09-08T00:36:04;16.87;84.19
13796;SHT30;40911;51.552;9.874;2023-09-08T00:38:26;16.74;84.67
13796;SHT30;40911;51.552;9.874;2023-09-08T00:40:49;16.84;84.48
13796;SHT30;40911;51.552;9.874;2023-09-08T00:43:11;16.74;84.72
13796;SHT30;40911;51.552;9.874;2023-09-08T00:45:36;16.66;85.09
13796;SHT30;40911;51.552;9.874;2023-09-08T00:47:59;16.68;85.08
13796;SHT30;40911;51.552;9.874;2023-09-08T00:50:21;16.32;86.40
13796;SHT30;40911;51.552;9.874;2023-09-08T00:52:43;16.35;86.48
13796;SHT30;40911;51.552;9.874;2023-09-08T00:55:04;16.12;87.01
13796;SHT30;40911;51.552;9.874;2023-09-08T00:57:28;16.24;86.81
13796;SHT30;40911;51.552;9.874;2023-09-08T00:59:49;16.35;86.47
13796;SHT30;40911;51.552;9.874;2023-09-08T01:02:11;16.17;86.60
13796;SHT30;40911;51.552;9.874;2023-09-08T01:04:33;16.19;86.74
13796;SHT30;40911;51.552;9.874;2023-09-08T01:06:55;15.81;88.22
13796;SHT30;40911;51.552;9.874;2023-09-08T01:09:18;16.26;86.52
13796;SHT30;40911;51.552;9.874;2023-09-08T01:11:40;16.04;87.19
13796;SHT30;40911;51.552;9.874;2023-09-08T01:14:03;15.99;86.98
13796;SHT30;40911;51.552;9.874;2023-09-08T01:16:25;16.01;87.36
13796;SHT30;40911;51.552;9.874;2023-09-08T01:18:46;16.14;86.63
13796;SHT30;40911;51.552;9.874;2023-09-08T01:21:33;16.24;85.91
13796;SHT30;40911;51.552;9.874;2023-09-08T01:24:11;16.11;86.40
13796;SHT30;40911;51.552;9.874;2023-09-08T01:26:41;16.04;86.68
13796;SHT30;40911;51.552;9.874;2023-09-08T01:29:05;16.08;86.19
13796;SHT30;40911;51.552;9.874;2023-09-08T01:31:27;16.09;86.28
13796;SHT30;40911;51.552;9.874;2023-09-08T01:33:48;16.24;85.73
13796;SHT30;40911;51.552;9.874;2023-09-08T01:36:10;15.95;86.02
13796;SHT30;40911;51.552;9.874;2023-09-08T01:38:32;15.74;87.40
13796;SHT30;40911;51.552;9.874;2023-09-08T01:40:53;15.78;87.15
13796;SHT30;40911;51.552;9.874;2023-09-08T01:43:16;15.81;86.92
13796;SHT30;40911;51.552;9.874;2023-09-08T01:45:38;15.49;88.45
13796;SHT30;40911;51.552;9.874;2023-09-08T01:48:00;15.90;86.95
13796;SHT30;40911;51.552;9.874;2023-09-08T01:50:21;15.94;86.54
13796;SHT30;40911;51.552;9.874;2023-09-08T01:52:45;16.01;86.35
13796;SHT30;40911;51.552;9.874;2023-09-08T01:55:06;15.77;87.44
13796;SHT30;40911;51.552;9.874;2023-09-08T01:57:28;15.75;87.44
13796;SHT30;40911;51.552;9.874;2023-09-08T01:59:51;15.73;87.23
13796;SHT30;40911;51.552;9.874;2023-09-08T02:02:13;15.71;87.28
13796;SHT30;40911;51.552;9.874;2023-09-08T02:04:35;15.90;86.54
13796;SHT30;40911;51.552;9.874;2023-09-08T02:06:57;15.82;87.54
13796;SHT30;40911;51.552;9.874;2023-09-08T02:09:18;15.91;86.78
13796;SHT30;40911;51.552;9.874;2023-09-08T02:11:40;15.78;86.54
13796;SHT30;40911;51.552;9.874;2023-09-08T02:14:02;15.59;87.45
13796;SHT30;40911;51.552;9.874;2023-09-08T02:16:25;15.40;88.33
13796;SHT30;40911;51.552;9.874;2023-09-08T02:18:47;15.43;88.14
13796;SHT30;40911;51.552;9.874;2023-09-08T02:21:08;15.38;88.26
13796;SHT30;40911;51.552;9.874;2023-09-08T02:23:30;15.39;87.94
13796;SHT30;40911;51.552;9.874;2023-09-08T02:25:51;15.22;88.31
13796;SHT30;40911;51.552;9.874;2023-09-08T02:28:13;15.23;87.95
13796;SHT30;40911;51.552;9.874;2023-09-08T02:30:34;15.35;87.83
13796;SHT30;40911;51.552;9.874;2023-09-08T02:32:58;15.02;88.83
13796;SHT30;40911;51.552;9.874;2023-09-08T02:35:20;14.91;89.70
13796;SHT30;40911;51.552;9.874;2023-09-08T02:37:42;15.18;88.35
13796;SHT30;40911;51.552;9.874;2023-09-08T02:40:04;15.11;88.29
13796;SHT30;40911;51.552;9.874;2023-09-08T02:42:26;15.06;88.57
13796;SHT30;40911;51.552;9.874;2023-09-08T02:44:47;15.16;88.21
13796;SHT30;40911;51.552;9.874;2023-09-08T02:47:09;15.11;88.06
13796;SHT30;40911;51.552;9.874;2023-09-08T02:49:32;15.08;88.29
13796;SHT30;40911;51.552;9.874;2023-09-08T02:51:54;14.95;88.51
13796;SHT30;40911;51.552;9.874;2023-09-08T02:54:16;14.92;88.59
13796;SHT30;40911;51.552;9.874;2023-09-08T02:56:37;14.83;89.03
13796;SHT30;40911;51.552;9.874;2023-09-08T02:58:59;14.84;88.74
13796;SHT30;40911;51.552;9.874;2023-09-08T03:01:21;15.02;88.39
13796;SHT30;40911;51.552;9.874;2023-09-08T03:03:43;14.54;90.03
13796;SHT30;40911;51.552;9.874;2023-09-08T03:06:06;15.01;88.14
13796;SHT30;40911;51.552;9.874;2023-09-08T03:08:28;14.89;88.02
13796;SHT30;40911;51.552;9.874;2023-09-08T03:10:49;14.73;88.60
13796;SHT30;40911;51.552;9.874;2023-09-08T03:13:11;14.50;89.72
13796;SHT30;40911;51.552;9.874;2023-09-08T03:15:33;14.59;89.35
13796;SHT30;40911;51.552;9.874;2023-09-08T03:17:56;14.78;88.98
13796;SHT30;40911;51.552;9.874;2023-09-08T03:20:18;14.85;88.47
13796;SHT30;40911;51.552;9.874;2023-09-08T03:22:41;14.83;88.89
13796;SHT30;40911;51.552;9.874;2023-09-08T03:25:04;14.81;88.53
13796;SHT30;40911;51.552;9.874;2023-09-08T03:27:26;14.57;88.95
13796;SHT30;40911;51.552;9.874;2023-09-08T03:29:47;14.47;89.24
13796;SHT30;40911;51.552;9.874;2023-09-08T03:32:09;14.39;90.47
13796;SHT30;40911;51.552;9.874;2023-09-08T03:34:31;14.63;89.19
13796;SHT30;40911;51.552;9.874;2023-09-08T03:36:54;14.47;89.27
13796;SHT30;40911;51.552;9.874;2023-09-08T03:39:17;14.52;89.47
13796;SHT30;40911;51.552;9.874;2023-09-08T03:41:40;14.49;89.14
13796;SHT30;40911;51.552;9.874;2023-09-08T03:44:01;14.57;88.73
13796;SHT30;40911;51.552;9.874;2023-09-08T03:46:23;14.46;88.98
13796;SHT30;40911;51.552;9.874;2023-09-08T03:48:45;14.47;89.26
13796;SHT30;40911;51.552;9.874;2023-09-08T03:51:07;14.41;89.54
13796;SHT30;40911;51.552;9.874;2023-09-08T03:53:29;14.36;89.40
13796;SHT30;40911;51.552;9.874;2023-09-08T03:55:51;14.23;89.85
13796;SHT30;40911;51.552;9.874;2023-09-08T03:58:13;14.49;89.17
13796;SHT30;40911;51.552;9.874;2023-09-08T04:00:36;14.54;89.18
13796;SHT30;40911;51.552;9.874;2023-09-08T04:02:57;14.50;88.86
13796;SHT30;40911;51.552;9.874;2023-09-08T04:05:19;14.36;89.08
13796;SHT30;40911;51.552;9.874;2023-09-08T04:07:41;14.34;89.17
13796;SHT30;40911;51.552;9.874;2023-09-08T04:10:02;14.52;88.32
13796;SHT30;40911;51.552;9.874;2023-09-08T04:12:26;14.37;88.91
13796;SHT30;40911;51.552;9.874;2023-09-08T04:14:47;14.22;89.51
13796;SHT30;40911;51.552;9.874;2023-09-08T04:17:10;14.50;88.78
13796;SHT30;40911;51.552;9.874;2023-09-08T04:19:31;14.61;88.21
13796;SHT30;40911;51.552;9.874;2023-09-08T04:21:53;14.53;88.47
13796;SHT30;40911;51.552;9.874;2023-09-08T04:24:14;14.53;88.51
13796;SHT30;40911;51.552;9.874;2023-09-08T04:26:36;14.67;88.20
13796;SHT30;40911;51.552;9.874;2023-09-08T04:28:59;14.32;89.32
13796;SHT30;40911;51.552;9.874;2023-09-08T04:31:21;14.30;89.08
13796;SHT30;40911;51.552;9.874;2023-09-08T04:33:42;14.10;89.69
13796;SHT30;40911;51.552;9.874;2023-09-08T04:36:04;13.95;90.63
13796;SHT30;40911;51.552;9.874;2023-09-08T04:38:26;14.10;89.95
13796;SHT30;40911;51.552;9.874;2023-09-08T04:40:48;13.97;89.98
13796;SHT30;40911;51.552;9.874;2023-09-08T04:43:09;13.91;89.80
13796;SHT30;40911;51.552;9.874;2023-09-08T04:45:32;14.04;90.04
13796;SHT30;40911;51.552;9.874;2023-09-08T04:47:54;13.99;89.95
13796;SHT30;40911;51.552;9.874;2023-09-08T04:50:15;13.91;90.55
13796;SHT30;40911;51.552;9.874;2023-09-08T04:52:37;13.95;90.13
13796;SHT30;40911;51.552;9.874;2023-09-08T04:54:59;13.70;91.12
13796;SHT30;40911;51.552;9.874;2023-09-08T04:57:20;13.67;91.65
13796;SHT30;40911;51.552;9.874;2023-09-08T04:59:42;13.98;90.30
13796;SHT30;40911;51.552;9.874;2023-09-08T05:02:05;14.10;89.64
13796;SHT30;40911;51.552;9.874;2023-09-08T05:04:26;14.18;89.43
13796;SHT30;40911;51.552;9.874;2023-09-08T05:06:48;14.22;89.38
13796;SHT30;40911;51.552;9.874;2023-09-08T05:09:10;14.13;89.36
13796;SHT30;40911;51.552;9.874;2023-09-08T05:11:31;14.20;89.15
13796;SHT30;40911;51.552;9.874;2023-09-08T05:13:53;14.12;89.23
13796;SHT30;40911;51.552;9.874;2023-09-08T05:16:15;14.22;89.37
13796;SHT30;40911;51.552;9.874;2023-09-08T05:18:40;14.30;89.15
13796;SHT30;40911;51.552;9.874;2023-09-08T05:21:02;14.22;89.05
13796;SHT30;40911;51.552;9.874;2023-09-08T05:23:24;14.20;89.27
13796;SHT30;40911;51.552;9.874;2023-09-08T05:25:45;14.13;89.95
13796;SHT30;40911;51.552;9.874;2023-09-08T05:28:07;14.27;89.34
13796;SHT30;40911;51.552;9.874;2023-09-08T05:30:29;14.32;89.13
13796;SHT30;40911;51.552;9.874;2023-09-08T05:32:50;14.37;89.11
13796;SHT30;40911;51.552;9.874;2023-09-08T05:35:13;14.36;89.58
13796;SHT30;40911;51.552;9.874;2023-09-08T05:37:35;14.41;89.34
13796;SHT30;40911;51.552;9.874;2023-09-08T05:39:56;14.63;88.79
13796;SHT30;40911;51.552;9.874;2023-09-08T05:42:18;14.63;89.31
13796;SHT30;40911;51.552;9.874;2023-09-08T05:44:40;14.68;89.14
13796;SHT30;40911;51.552;9.874;2023-09-08T05:47:02;14.73;89.00
13796;SHT30;40911;51.552;9.874;2023-09-08T05:49:24;14.78;89.04
13796;SHT30;40911;51.552;9.874;2023-09-08T05:51:47;14.80;88.95
13796;SHT30;40911;51.552;9.874;2023-09-08T05:54:08;14.96;88.60
13796;SHT30;40911;51.552;9.874;2023-09-08T05:56:30;14.85;89.16
13796;SHT30;40911;51.552;9.874;2023-09-08T05:58:52;14.94;88.91
13796;SHT30;40911;51.552;9.874;2023-09-08T06:01:14;15.11;88.65
13796;SHT30;40911;51.552;9.874;2023-09-08T06:03:36;15.31;87.67
13796;SHT30;40911;51.552;9.874;2023-09-08T06:05:57;15.43;87.59
13796;SHT30;40911;51.552;9.874;2023-09-08T06:08:21;15.47;87.62
13796;SHT30;40911;51.552;9.874;2023-09-08T06:10:42;15.40;88.29
13796;SHT30;40911;51.552;9.874;2023-09-08T06:13:04;15.52;87.67
13796;SHT30;40911;51.552;9.874;2023-09-08T06:15:26;15.78;87.00
13796;SHT30;40911;51.552;9.874;2023-09-08T06:17:47;15.90;86.95
13796;SHT30;40911;51.552;9.874;2023-09-08T06:20:10;16.07;86.47
13796;SHT30;40911;51.552;9.874;2023-09-08T06:22:32;16.39;85.69
13796;SHT30;40911;51.552;9.874;2023-09-08T06:24:56;16.42;86.64
13796;SHT30;40911;51.552;9.874;2023-09-08T06:27:17;16.78;85.86
13796;SHT30;40911;51.552;9.874;2023-09-08T06:29:39;17.01;84.80
13796;SHT30;40911;51.552;9.874;2023-09-08T06:32:04;17.21;84.64
13796;SHT30;40911;51.552;9.874;2023-09-08T06:34:26;17.43;83.88
13796;SHT30;40911;51.552;9.874;2023-09-08T06:36:47;17.50;83.47
13796;SHT30;40911;51.552;9.874;2023-09-08T06:39:09;17.60;84.19
13796;SHT30;40911;51.552;9.874;2023-09-08T06:41:32;17.66;83.13
13796;SHT30;40911;51.552;9.874;2023-09-08T06:43:54;17.94;82.77
13796;SHT30;40911;51.552;9.874;2023-09-08T06:46:15;17.87;83.10
13796;SHT30;40911;51.552;9.874;2023-09-08T06:48:37;18.29;82.29
13796;SHT30;40911;51.552;9.874;2023-09-08T06:50:58;18.53;82.25
13796;SHT30;40911;51.552;9.874;2023-09-08T06:53:20;18.51;81.90
13796;SHT30;40911;51.552;9.874;2023-09-08T06:55:42;18.60;81.97
13796;SHT30;40911;51.552;9.874;2023-09-08T06:58:05;18.90;80.97
13796;SHT30;40911;51.552;9.874;2023-09-08T07:00:27;19.11;80.67
13796;SHT30;40911;51.552;9.874;2023-09-08T07:02:48;19.05;80.57
13796;SHT30;40911;51.552;9.874;2023-09-08T07:05:10;19.15;79.52
13796;SHT30;40911;51.552;9.874;2023-09-08T07:07:32;19.20;80.64
13796;SHT30;40911;51.552;9.874;2023-09-08T07:09:54;19.32;80.29
13796;SHT30;40911;51.552;9.874;2023-09-08T07:12:15;19.73;78.82
13796;SHT30;40911;51.552;9.874;2023-09-08T07:14:39;19.90;79.01
13796;SHT30;40911;51.552;9.874;2023-09-08T07:17:00;19.91;78.67
13796;SHT30;40911;51.552;9.874;2023-09-08T07:19:22;20.09;78.41
13796;SHT30;40911;51.552;9.874;2023-09-08T07:21:44;20.14;78.39
13796;SHT30;40911;51.552;9.874;2023-09-08T07:24:06;20.25;78.23
13796;SHT30;40911;51.552;9.874;2023-09-08T07:26:28;20.17;78.46
13796;SHT30;40911;51.552;9.874;2023-09-08T07:28:50;20.55;76.86
13796;SHT30;40911;51.552;9.874;2023-09-08T07:31:13;20.87;76.43
13796;SHT30;40911;51.552;9.874;2023-09-08T07:33:35;20.71;76.62
13796;SHT30;40911;51.552;9.874;2023-09-08T07:35:57;21.02;75.89
13796;SHT30;40911;51.552;9.874;2023-09-08T07:38:19;21.13;77.11
13796;SHT30;40911;51.552;9.874;2023-09-08T07:40:41;20.58;75.10
13796;SHT30;40911;51.552;9.874;2023-09-08T07:43:03;21.38;77.63
13796;SHT30;40911;51.552;9.874;2023-09-08T07:45:25;21.72;74.37
13796;SHT30;40911;51.552;9.874;2023-09-08T07:47:48;21.83;73.16
13796;SHT30;40911;51.552;9.874;2023-09-08T07:50:19;22.28;74.83
13796;SHT30;40911;51.552;9.874;2023-09-08T07:52:41;21.78;73.97
13796;SHT30;40911;51.552;9.874;2023-09-08T07:55:03;21.82;74.02
13796;SHT30;40911;51.552;9.874;2023-09-08T07:57:25;22.10;76.07
13796;SHT30;40911;51.552;9.874;2023-09-08T07:59:47;22.60;73.24
13796;SHT30;40911;51.552;9.874;2023-09-08T08:02:08;21.98;74.72
13796;SHT30;40911;51.552;9.874;2023-09-08T08:04:32;22.06;72.85
13796;SHT30;40911;51.552;9.874;2023-09-08T08:06:54;22.65;73.33
13796;SHT30;40911;51.552;9.874;2023-09-08T08:09:16;22.68;74.11
13796;SHT30;40911;51.552;9.874;2023-09-08T08:11:37;23.19;70.75
13796;SHT30;40911;51.552;9.874;2023-09-08T08:13:59;23.44;71.44
13796;SHT30;40911;51.552;9.874;2023-09-08T08:16:21;23.47;72.09
13796;SHT30;40911;51.552;9.874;2023-09-08T08:18:43;23.47;72.27
13796;SHT30;40911;51.552;9.874;2023-09-08T08:21:06;23.97;71.73
13796;SHT30;40911;51.552;9.874;2023-09-08T08:23:28;24.13;70.30
13796;SHT30;40911;51.552;9.874;2023-09-08T08:25:49;24.22;70.81
13796;SHT30;40911;51.552;9.874;2023-09-08T08:28:11;24.10;70.74
13796;SHT30;40911;51.552;9.874;2023-09-08T08:30:33;24.20;71.09
13796;SHT30;40911;51.552;9.874;2023-09-08T08:32:56;24.09;68.68
13796;SHT30;40911;51.552;9.874;2023-09-08T08:35:17;23.82;68.50
13796;SHT30;40911;51.552;9.874;2023-09-08T08:37:41;24.71;68.54
13796;SHT30;40911;51.552;9.874;2023-09-08T08:40:03;24.26;68.56
13796;SHT30;40911;51.552;9.874;2023-09-08T08:42:31;24.66;66.27
13796;SHT30;40911;51.552;9.874;2023-09-08T08:44:52;24.12;68.32
13796;SHT30;40911;51.552;9.874;2023-09-08T08:47:14;24.80;68.98
13796;SHT30;40911;51.552;9.874;2023-09-08T08:49:38;24.43;67.85
13796;SHT30;40911;51.552;9.874;2023-09-08T08:52:01;23.80;70.56
13796;SHT30;40911;51.552;9.874;2023-09-08T08:54:29;25.00;67.67
13796;SHT30;40911;51.552;9.874;2023-09-08T08:56:51;24.46;67.83
13796;SHT30;40911;51.552;9.874;2023-09-08T08:59:12;25.11;66.30
13796;SHT30;40911;51.552;9.874;2023-09-08T09:01:35;24.78;67.63
13796;SHT30;40911;51.552;9.874;2023-09-08T09:03:57;25.22;67.36
13796;SHT30;40911;51.552;9.874;2023-09-08T09:06:19;25.83;67.14
13796;SHT30;40911;51.552;9.874;2023-09-08T09:08:43;25.08;66.59
13796;SHT30;40911;51.552;9.874;2023-09-08T09:11:06;25.56;66.36
13796;SHT30;40911;51.552;9.874;2023-09-08T09:13:27;26.07;66.23
13796;SHT30;40911;51.552;9.874;2023-09-08T09:15:50;26.62;65.00
13796;SHT30;40911;51.552;9.874;2023-09-08T09:18:12;26.02;65.02
13796;SHT30;40911;51.552;9.874;2023-09-08T09:20:34;26.02;65.78
13796;SHT30;40911;51.552;9.874;2023-09-08T09:22:56;26.25;66.04
13796;SHT30;40911;51.552;9.874;2023-09-08T09:25:21;26.53;64.45
13796;SHT30;40911;51.552;9.874;2023-09-08T09:27:50;26.25;62.85
13796;SHT30;40911;51.552;9.874;2023-09-08T09:30:12;26.28;63.60
13796;SHT30;40911;51.552;9.874;2023-09-08T09:32:34;25.84;64.16
13796;SHT30;40911;51.552;9.874;2023-09-08T09:34:57;26.74;65.26
13796;SHT30;40911;51.552;9.874;2023-09-08T09:37:21;26.92;63.55
13796;SHT30;40911;51.552;9.874;2023-09-08T09:39:48;26.59;62.81
13796;SHT30;40911;51.552;9.874;2023-09-08T09:42:10;26.87;63.13
13796;SHT30;40911;51.552;9.874;2023-09-08T09:44:33;26.80;63.18
13796;SHT30;40911;51.552;9.874;2023-09-08T09:46:55;26.97;64.07
13796;SHT30;40911;51.552;9.874;2023-09-08T09:49:17;27.39;62.65
13796;SHT30;40911;51.552;9.874;2023-09-08T09:51:43;27.65;63.06
13796;SHT30;40911;51.552;9.874;2023-09-08T09:54:06;27.22;64.28
13796;SHT30;40911;51.552;9.874;2023-09-08T09:56:28;27.57;62.76
13796;SHT30;40911;51.552;9.874;2023-09-08T09:58:52;26.66;62.02
13796;SHT30;40911;51.552;9.874;2023-09-08T10:01:16;26.17;62.68
13796;SHT30;40911;51.552;9.874;2023-09-08T10:03:39;26.86;63.38
13796;SHT30;40911;51.552;9.874;2023-09-08T10:06:02;27.18;63.00
13796;SHT30;40911;51.552;9.874;2023-09-08T10:08:23;27.17;62.20
13796;SHT30;40911;51.552;9.874;2023-09-08T10:10:46;27.49;62.46
13796;SHT30;40911;51.552;9.874;2023-09-08T10:13:09;27.99;61.68
13796;SHT30;40911;51.552;9.874;2023-09-08T10:15:33;27.76;61.68
13796;SHT30;40911;51.552;9.874;2023-09-08T10:17:56;27.58;61.15
13796;SHT30;40911;51.552;9.874;2023-09-08T10:20:22;27.92;62.59
13796;SHT30;40911;51.552;9.874;2023-09-08T10:22:46;27.90;61.05
13796;SHT30;40911;51.552;9.874;2023-09-08T10:25:08;27.08;61.44
13796;SHT30;40911;51.552;9.874;2023-09-08T10:27:31;27.66;61.03
13796;SHT30;40911;51.552;9.874;2023-09-08T10:29:53;28.06;61.04
13796;SHT30;40911;51.552;9.874;2023-09-08T10:32:15;27.93;60.52
13796;SHT30;40911;51.552;9.874;2023-09-08T10:34:40;28.64;61.95
13796;SHT30;40911;51.552;9.874;2023-09-08T10:37:02;27.92;60.92
13796;SHT30;40911;51.552;9.874;2023-09-08T10:39:30;28.35;61.09
13796;SHT30;40911;51.552;9.874;2023-09-08T10:42:22;28.69;59.59
13796;SHT30;40911;51.552;9.874;2023-09-08T10:44:55;28.76;59.94
13796;SHT30;40911;51.552;9.874;2023-09-08T10:47:18;28.91;58.88
13796;SHT30;40911;51.552;9.874;2023-09-08T10:49:42;29.47;60.07
13796;SHT30;40911;51.552;9.874;2023-09-08T10:52:07;29.06;59.20
13796;SHT30;40911;51.552;9.874;2023-09-08T10:54:40;28.71;58.47
13796;SHT30;40911;51.552;9.874;2023-09-08T10:57:12;28.89;58.32
13796;SHT30;40911;51.552;9.874;2023-09-08T10:59:34;28.83;58.36
13796;SHT30;40911;51.552;9.874;2023-09-08T11:01:56;28.62;60.17
13796;SHT30;40911;51.552;9.874;2023-09-08T11:04:19;28.43;57.87
13796;SHT30;40911;51.552;9.874;2023-09-08T11:06:42;28.56;58.05
13796;SHT30;40911;51.552;9.874;2023-09-08T11:09:06;28.17;58.78
13796;SHT30;40911;51.552;9.874;2023-09-08T11:11:33;28.13;58.34
13796;SHT30;40911;51.552;9.874;2023-09-08T11:13:55;28.40;58.25
13796;SHT30;40911;51.552;9.874;2023-09-08T11:16:17;28.74;58.21
13796;SHT30;40911;51.552;9.874;2023-09-08T11:18:43;29.23;58.97
13796;SHT30;40911;51.552;9.874;2023-09-08T11:21:08;29.02;57.77
13796;SHT30;40911;51.552;9.874;2023-09-08T11:23:31;29.47;57.39
13796;SHT30;40911;51.552;9.874;2023-09-08T11:25:53;29.48;55.64
13796;SHT30;40911;51.552;9.874;2023-09-08T11:28:15;29.82;54.22
13796;SHT30;40911;51.552;9.874;2023-09-08T11:30:37;29.62;54.55
13796;SHT30;40911;51.552;9.874;2023-09-08T11:32:59;29.95;54.59
13796;SHT30;40911;51.552;9.874;2023-09-08T11:35:21;30.26;53.94
13796;SHT30;40911;51.552;9.874;2023-09-08T11:37:43;29.80;53.47
13796;SHT30;40911;51.552;9.874;2023-09-08T11:40:09;29.68;52.13
13796;SHT30;40911;51.552;9.874;2023-09-08T11:42:33;30.01;52.68
13796;SHT30;40911;51.552;9.874;2023-09-08T11:44:57;30.37;52.54
13796;SHT30;40911;51.552;9.874;2023-09-08T11:47:19;30.47;51.15
13796;SHT30;40911;51.552;9.874;2023-09-08T11:49:41;30.61;52.63
13796;SHT30;40911;51.552;9.874;2023-09-08T11:52:05;30.71;50.35
13796;SHT30;40911;51.552;9.874;2023-09-08T11:54:28;30.09;51.03
13796;SHT30;40911;51.552;9.874;2023-09-08T11:56:52;30.01;51.43
13796;SHT30;40911;51.552;9.874;2023-09-08T11:59:15;30.78;51.45
13796;SHT30;40911;51.552;9.874;2023-09-08T12:01:37;30.24;50.47
13796;SHT30;40911;51.552;9.874;2023-09-08T12:03:59;30.54;50.50
13796;SHT30;40911;51.552;9.874;2023-09-08T12:06:24;30.06;51.89
13796;SHT30;40911;51.552;9.874;2023-09-08T12:08:46;30.43;49.65
13796;SHT30;40911;51.552;9.874;2023-09-08T12:11:07;30.87;48.61
13796;SHT30;40911;51.552;9.874;2023-09-08T12:13:32;31.29;48.19
13796;SHT30;40911;51.552;9.874;2023-09-08T12:15:55;31.14;49.49
13796;SHT30;40911;51.552;9.874;2023-09-08T12:18:18;31.23;48.60
13796;SHT30;40911;51.552;9.874;2023-09-08T12:20:41;31.40;47.09
13796;SHT30;40911;51.552;9.874;2023-09-08T12:23:05;30.98;47.34
13796;SHT30;40911;51.552;9.874;2023-09-08T12:25:28;30.90;44.93
13796;SHT30;40911;51.552;9.874;2023-09-08T12:27:51;31.22;43.18
13796;SHT30;40911;51.552;9.874;2023-09-08T12:30:18;31.57;43.73
13796;SHT30;40911;51.552;9.874;2023-09-08T12:32:40;31.62;43.18
13796;SHT30;40911;51.552;9.874;2023-09-08T12:35:03;31.95;41.65
13796;SHT30;40911;51.552;9.874;2023-09-08T12:37:26;31.30;43.91
13796;SHT30;40911;51.552;9.874;2023-09-08T12:39:48;31.02;43.44
13796;SHT30;40911;51.552;9.874;2023-09-08T12:42:10;31.50;43.59
13796;SHT30;40911;51.552;9.874;2023-09-08T12:44:31;31.81;43.73
13796;SHT30;40911;51.552;9.874;2023-09-08T12:46:54;31.66;43.85
13796;SHT30;40911;51.552;9.874;2023-09-08T12:49:16;32.04;43.51
13796;SHT30;40911;51.552;9.874;2023-09-08T12:51:38;31.91;42.52
13796;SHT30;40911;51.552;9.874;2023-09-08T12:54:00;31.80;42.32
13796;SHT30;40911;51.552;9.874;2023-09-08T12:56:22;32.03;41.81
13796;SHT30;40911;51.552;9.874;2023-09-08T12:58:43;32.11;41.73
13796;SHT30;40911;51.552;9.874;2023-09-08T13:01:05;31.80;41.69
13796;SHT30;40911;51.552;9.874;2023-09-08T13:03:28;31.78;41.25
13796;SHT30;40911;51.552;9.874;2023-09-08T13:05:50;32.04;40.38
13796;SHT30;40911;51.552;9.874;2023-09-08T13:08:12;31.88;41.20
13796;SHT30;40911;51.552;9.874;2023-09-08T13:10:35;32.27;42.24
13796;SHT30;40911;51.552;9.874;2023-09-08T13:12:57;32.00;41.04
13796;SHT30;40911;51.552;9.874;2023-09-08T13:15:19;32.70;41.05
13796;SHT30;40911;51.552;9.874;2023-09-08T13:17:40;32.24;40.39
13796;SHT30;40911;51.552;9.874;2023-09-08T13:20:04;32.27;41.47
13796;SHT30;40911;51.552;9.874;2023-09-08T13:22:27;32.12;41.96
13796;SHT30;40911;51.552;9.874;2023-09-08T13:24:49;32.31;39.96
13796;SHT30;40911;51.552;9.874;2023-09-08T13:27:10;32.70;41.65
13796;SHT30;40911;51.552;9.874;2023-09-08T13:29:33;32.73;39.96
13796;SHT30;40911;51.552;9.874;2023-09-08T13:31:54;32.62;39.99
13796;SHT30;40911;51.552;9.874;2023-09-08T13:34:17;32.39;41.14
13796;SHT30;40911;51.552;9.874;2023-09-08T13:36:40;32.07;38.70
13796;SHT30;40911;51.552;9.874;2023-09-08T13:39:02;32.29;41.16
13796;SHT30;40911;51.552;9.874;2023-09-08T13:41:24;32.48;40.70
13796;SHT30;40911;51.552;9.874;2023-09-08T13:43:45;32.55;40.39
13796;SHT30;40911;51.552;9.874;2023-09-08T13:46:07;32.41;39.01
13796;SHT30;40911;51.552;9.874;2023-09-08T13:48:29;32.72;39.03
13796;SHT30;40911;51.552;9.874;2023-09-08T13:50:50;32.52;39.55
13796;SHT30;40911;51.552;9.874;2023-09-08T13:53:13;31.93;40.27
13796;SHT30;40911;51.552;9.874;2023-09-08T13:55:35;32.52;40.06
13796;SHT30;40911;51.552;9.874;2023-09-08T13:57:57;32.72;40.30
13796;SHT30;40911;51.552;9.874;2023-09-08T14:00:19;32.87;42.77
13796;SHT30;40911;51.552;9.874;2023-09-08T14:02:41;32.39;39.48
13796;SHT30;40911;51.552;9.874;2023-09-08T14:05:03;32.32;38.97
13796;SHT30;40911;51.552;9.874;2023-09-08T14:07:25;32.72;38.45
13796;SHT30;40911;51.552;9.874;2023-09-08T14:09:48;33.08;39.68
13796;SHT30;40911;51.552;9.874;2023-09-08T14:12:10;33.48;40.20
13796;SHT30;40911;51.552;9.874;2023-09-08T14:14:31;32.60;38.50
13796;SHT30;40911;51.552;9.874;2023-09-08T14:16:53;32.69;38.92
13796;SHT30;40911;51.552;9.874;2023-09-08T14:19:15;32.66;39.45
13796;SHT30;40911;51.552;9.874;2023-09-08T14:21:36;32.63;39.37
13796;SHT30;40911;51.552;9.874;2023-09-08T14:23:59;31.88;39.27
13796;SHT30;40911;51.552;9.874;2023-09-08T14:26:21;32.73;40.44
13796;SHT30;40911;51.552;9.874;2023-09-08T14:28:43;33.11;39.40
13796;SHT30;40911;51.552;9.874;2023-09-08T14:31:05;33.20;40.81
13796;SHT30;40911;51.552;9.874;2023-09-08T14:33:27;32.35;38.58
13796;SHT30;40911;51.552;9.874;2023-09-08T14:35:48;32.31;38.63
13796;SHT30;40911;51.552;9.874;2023-09-08T14:38:12;32.35;39.62
13796;SHT30;40911;51.552;9.874;2023-09-08T14:40:36;32.84;39.19
13796;SHT30;40911;51.552;9.874;2023-09-08T14:42:59;32.76;40.28
13796;SHT30;40911;51.552;9.874;2023-09-08T14:45:21;32.32;40.75
13796;SHT30;40911;51.552;9.874;2023-09-08T14:47:43;32.25;39.58
13796;SHT30;40911;51.552;9.874;2023-09-08T14:50:05;33.02;39.97
13796;SHT30;40911;51.552;9.874;2023-09-08T14:52:27;32.39;40.25
13796;SHT30;40911;51.552;9.874;2023-09-08T14:54:49;32.43;39.45
13796;SHT30;40911;51.552;9.874;2023-09-08T14:57:10;32.83;40.31
13796;SHT30;40911;51.552;9.874;2023-09-08T14:59:34;32.53;41.91
13796;SHT30;40911;51.552;9.874;2023-09-08T15:01:55;32.69;40.28